sensor_id;sensor_type;location;lat;lon;timestamp;P1;durP1;ratioP1;P2;durP2;ratioP2
64031;SDS011;50278;47.796;11.968;2023-03-14T00:01:23;2.80;;;0.70;;
64031;SDS011;50278;47.796;11.968;2023-03-14T00:03:49;1.17;;;0.55;;
64031;SDS011;50278;47.796;11.968;2023-03-14T00:06:15;1.88;;;0.73;;
64031;SDS011;50278;47.796;11.968;2023-03-14T00:08:42;3.28;;;0.70;;
64031;SDS011;50278;47.796;11.968;2023-03-14T00:11:13;2.70;;;0.68;;
64031;SDS011;50278;47.796;11.968;2023-03-14T00:16:10;2.00;;;0.80;;
64031;SDS011;50278;47.796;11.968;2023-03-14T00:18:37;1.77;;;0.65;;
64031;SDS011;50278;47.796;11.968;2023-03-14T00:21:04;2.63;;;0.70;;
64031;SDS011;50278;47.796;11.968;2023-03-14T00:23:32;2.95;;;0.55;;
64031;SDS011;50278;47.796;11.968;2023-03-14T00:25:59;0.68;;;0.40;;
64031;SDS011;50278;47.796;11.968;2023-03-14T00:28:26;1.45;;;0.75;;
64031;SDS011;50278;47.796;11.968;2023-03-14T00:30:52;1.27;;;0.60;;
64031;SDS011;50278;47.796;11.968;2023-03-14T00:33:18;4.22;;;0.85;;
64031;SDS011;50278;47.796;11.968;2023-03-14T00:35:51;1.40;;;0.55;;
64031;SDS011;50278;47.796;11.968;2023-03-14T00:38:29;2.05;;;0.88;;
64031;SDS011;50278;47.796;11.968;2023-03-14T00:40:56;1.63;;;0.88;;
64031;SDS011;50278;47.796;11.968;2023-03-14T00:43:22;1.70;;;0.80;;
64031;SDS011;50278;47.796;11.968;2023-03-14T00:45:48;1.48;;;0.50;;
64031;SDS011;50278;47.796;11.968;2023-03-14T00:48:18;1.23;;;0.60;;
64031;SDS011;50278;47.796;11.968;2023-03-14T00:50:44;2.17;;;0.57;;
64031;SDS011;50278;47.796;11.968;2023-03-14T00:53:14;1.48;;;0.60;;
64031;SDS011;50278;47.796;11.968;2023-03-14T00:55:40;1.42;;;0.57;;
64031;SDS011;50278;47.796;11.968;2023-03-14T00:58:07;4.78;;;0.70;;
64031;SDS011;50278;47.796;11.968;2023-03-14T01:00:33;3.75;;;0.75;;
64031;SDS011;50278;47.796;11.968;2023-03-14T01:03:00;3.65;;;0.40;;
64031;SDS011;50278;47.796;11.968;2023-03-14T01:05:26;2.47;;;0.60;;
64031;SDS011;50278;47.796;11.968;2023-03-14T01:07:52;4.00;;;0.60;;
64031;SDS011;50278;47.796;11.968;2023-03-14T01:10:17;1.67;;;0.73;;
64031;SDS011;50278;47.796;11.968;2023-03-14T01:12:43;1.73;;;0.40;;
64031;SDS011;50278;47.796;11.968;2023-03-14T01:15:08;1.33;;;0.63;;
64031;SDS011;50278;47.796;11.968;2023-03-14T01:17:34;1.20;;;0.40;;
64031;SDS011;50278;47.796;11.968;2023-03-14T01:20:00;0.95;;;0.40;;
64031;SDS011;50278;47.796;11.968;2023-03-14T01:22:26;1.00;;;0.50;;
64031;SDS011;50278;47.796;11.968;2023-03-14T01:24:51;1.55;;;0.40;;
64031;SDS011;50278;47.796;11.968;2023-03-14T01:27:17;0.93;;;0.40;;
64031;SDS011;50278;47.796;11.968;2023-03-14T01:29:43;1.75;;;0.50;;
64031;SDS011;50278;47.796;11.968;2023-03-14T01:32:09;1.45;;;0.40;;
64031;SDS011;50278;47.796;11.968;2023-03-14T01:34:34;2.85;;;0.50;;
64031;SDS011;50278;47.796;11.968;2023-03-14T01:37:00;0.93;;;0.35;;
64031;SDS011;50278;47.796;11.968;2023-03-14T01:39:25;1.42;;;0.50;;
64031;SDS011;50278;47.796;11.968;2023-03-14T01:41:51;1.08;;;0.38;;
64031;SDS011;50278;47.796;11.968;2023-03-14T01:44:17;0.63;;;0.40;;
64031;SDS011;50278;47.796;11.968;2023-03-14T01:46:43;2.28;;;0.30;;
64031;SDS011;50278;47.796;11.968;2023-03-14T01:54:42;1.25;;;0.70;;
64031;SDS011;50278;47.796;11.968;2023-03-14T01:57:15;2.15;;;0.55;;
64031;SDS011;50278;47.796;11.968;2023-03-14T01:59:43;1.60;;;0.50;;
64031;SDS011;50278;47.796;11.968;2023-03-14T02:02:21;1.85;;;0.65;;
64031;SDS011;50278;47.796;11.968;2023-03-14T02:04:49;1.08;;;0.38;;
64031;SDS011;50278;47.796;11.968;2023-03-14T02:07:19;2.08;;;0.30;;
64031;SDS011;50278;47.796;11.968;2023-03-14T02:10:06;0.50;;;0.30;;
64031;SDS011;50278;47.796;11.968;2023-03-14T02:12:33;0.85;;;0.40;;
64031;SDS011;50278;47.796;11.968;2023-03-14T02:15:12;2.30;;;0.57;;
64031;SDS011;50278;47.796;11.968;2023-03-14T02:17:49;2.28;;;0.47;;
64031;SDS011;50278;47.796;11.968;2023-03-14T02:20:55;1.13;;;0.50;;
64031;SDS011;50278;47.796;11.968;2023-03-14T02:23:50;1.17;;;0.45;;
64031;SDS011;50278;47.796;11.968;2023-03-14T02:26:24;0.52;;;0.20;;
64031;SDS011;50278;47.796;11.968;2023-03-14T02:28:57;0.70;;;0.32;;
64031;SDS011;50278;47.796;11.968;2023-03-14T02:31:23;1.05;;;0.45;;
64031;SDS011;50278;47.796;11.968;2023-03-14T02:33:49;1.02;;;0.40;;
64031;SDS011;50278;47.796;11.968;2023-03-14T02:36:15;1.77;;;0.63;;
64031;SDS011;50278;47.796;11.968;2023-03-14T02:38:46;1.90;;;0.65;;
64031;SDS011;50278;47.796;11.968;2023-03-14T02:41:17;1.02;;;0.40;;
64031;SDS011;50278;47.796;11.968;2023-03-14T02:43:50;1.02;;;0.30;;
64031;SDS011;50278;47.796;11.968;2023-03-14T02:46:19;1.13;;;0.45;;
64031;SDS011;50278;47.796;11.968;2023-03-14T02:48:51;0.53;;;0.30;;
64031;SDS011;50278;47.796;11.968;2023-03-14T02:51:21;0.57;;;0.13;;
64031;SDS011;50278;47.796;11.968;2023-03-14T02:53:48;0.80;;;0.30;;
64031;SDS011;50278;47.796;11.968;2023-03-14T02:56:14;0.47;;;0.17;;
64031;SDS011;50278;47.796;11.968;2023-03-14T02:58:40;0.95;;;0.38;;
64031;SDS011;50278;47.796;11.968;2023-03-14T03:01:18;1.33;;;0.20;;
64031;SDS011;50278;47.796;11.968;2023-03-14T03:03:44;1.73;;;0.22;;
64031;SDS011;50278;47.796;11.968;2023-03-14T03:06:10;0.88;;;0.20;;
64031;SDS011;50278;47.796;11.968;2023-03-14T03:08:36;0.47;;;0.20;;
64031;SDS011;50278;47.796;11.968;2023-03-14T03:11:03;1.13;;;0.20;;
64031;SDS011;50278;47.796;11.968;2023-03-14T03:13:31;0.50;;;0.20;;
64031;SDS011;50278;47.796;11.968;2023-03-14T03:15:59;0.30;;;0.10;;
64031;SDS011;50278;47.796;11.968;2023-03-14T03:18:25;0.47;;;0.10;;
64031;SDS011;50278;47.796;11.968;2023-03-14T03:20:50;0.73;;;0.15;;
64031;SDS011;50278;47.796;11.968;2023-03-14T03:23:16;3.30;;;0.03;;
64031;SDS011;50278;47.796;11.968;2023-03-14T03:25:41;1.70;;;0.10;;
64031;SDS011;50278;47.796;11.968;2023-03-14T03:28:07;0.75;;;0.00;;
64031;SDS011;50278;47.796;11.968;2023-03-14T03:30:38;2.75;;;0.10;;
64031;SDS011;50278;47.796;11.968;2023-03-14T03:33:05;0.22;;;0.05;;
64031;SDS011;50278;47.796;11.968;2023-03-14T03:35:31;1.10;;;0.00;;
64031;SDS011;50278;47.796;11.968;2023-03-14T03:37:57;2.25;;;0.00;;
64031;SDS011;50278;47.796;11.968;2023-03-14T03:40:22;0.10;;;0.00;;
64031;SDS011;50278;47.796;11.968;2023-03-14T03:42:48;0.17;;;0.03;;
64031;SDS011;50278;47.796;11.968;2023-03-14T03:45:14;1.17;;;0.00;;
64031;SDS011;50278;47.796;11.968;2023-03-14T03:47:49;0.20;;;0.00;;
64031;SDS011;50278;47.796;11.968;2023-03-14T03:50:14;0.22;;;0.13;;
64031;SDS011;50278;47.796;11.968;2023-03-14T03:52:40;0.00;;;0.00;;
64031;SDS011;50278;47.796;11.968;2023-03-14T03:55:06;0.13;;;0.00;;
64031;SDS011;50278;47.796;11.968;2023-03-14T03:57:32;1.85;;;0.00;;
64031;SDS011;50278;47.796;11.968;2023-03-14T03:59:57;0.13;;;0.00;;
64031;SDS011;50278;47.796;11.968;2023-03-14T04:02:23;0.20;;;0.00;;
64031;SDS011;50278;47.796;11.968;2023-03-14T04:04:49;0.00;;;0.00;;
64031;SDS011;50278;47.796;11.968;2023-03-14T04:07:16;0.00;;;0.00;;
64031;SDS011;50278;47.796;11.968;2023-03-14T04:09:42;0.10;;;0.00;;
64031;SDS011;50278;47.796;11.968;2023-03-14T04:12:19;0.00;;;0.00;;
64031;SDS011;50278;47.796;11.968;2023-03-14T04:14:58;0.00;;;0.00;;
64031;SDS011;50278;47.796;11.968;2023-03-14T04:17:23;0.10;;;0.00;;
64031;SDS011;50278;47.796;11.968;2023-03-14T04:19:49;0.10;;;0.00;;
64031;SDS011;50278;47.796;11.968;2023-03-14T04:22:18;0.00;;;0.00;;
64031;SDS011;50278;47.796;11.968;2023-03-14T04:24:47;0.10;;;0.00;;
64031;SDS011;50278;47.796;11.968;2023-03-14T04:27:13;0.05;;;0.00;;
64031;SDS011;50278;47.796;11.968;2023-03-14T04:29:41;0.03;;;0.00;;
64031;SDS011;50278;47.796;11.968;2023-03-14T04:32:07;0.00;;;0.00;;
64031;SDS011;50278;47.796;11.968;2023-03-14T04:34:36;0.10;;;0.00;;
64031;SDS011;50278;47.796;11.968;2023-03-14T04:37:01;0.55;;;0.00;;
64031;SDS011;50278;47.796;11.968;2023-03-14T04:39:33;0.15;;;0.00;;
64031;SDS011;50278;47.796;11.968;2023-03-14T04:42:07;0.00;;;0.00;;
64031;SDS011;50278;47.796;11.968;2023-03-14T04:44:35;0.82;;;0.08;;
64031;SDS011;50278;47.796;11.968;2023-03-14T04:47:01;0.70;;;0.10;;
64031;SDS011;50278;47.796;11.968;2023-03-14T04:49:26;1.05;;;0.30;;
64031;SDS011;50278;47.796;11.968;2023-03-14T04:51:52;1.00;;;0.10;;
64031;SDS011;50278;47.796;11.968;2023-03-14T04:54:19;2.85;;;0.22;;
64031;SDS011;50278;47.796;11.968;2023-03-14T04:56:49;0.50;;;0.00;;
64031;SDS011;50278;47.796;11.968;2023-03-14T04:59:14;1.08;;;0.10;;
64031;SDS011;50278;47.796;11.968;2023-03-14T05:01:41;0.47;;;0.00;;
64031;SDS011;50278;47.796;11.968;2023-03-14T05:04:34;0.03;;;0.00;;
64031;SDS011;50278;47.796;11.968;2023-03-14T05:07:32;0.10;;;0.00;;
64031;SDS011;50278;47.796;11.968;2023-03-14T05:10:22;0.35;;;0.10;;
64031;SDS011;50278;47.796;11.968;2023-03-14T05:13:07;0.15;;;0.00;;
64031;SDS011;50278;47.796;11.968;2023-03-14T05:16:05;0.17;;;0.05;;
64031;SDS011;50278;47.796;11.968;2023-03-14T05:18:51;0.45;;;0.15;;
64031;SDS011;50278;47.796;11.968;2023-03-14T05:21:35;0.10;;;0.00;;
64031;SDS011;50278;47.796;11.968;2023-03-14T05:24:09;0.52;;;0.13;;
64031;SDS011;50278;47.796;11.968;2023-03-14T05:26:50;1.10;;;0.60;;
64031;SDS011;50278;47.796;11.968;2023-03-14T05:29:34;7.65;;;4.47;;
64031;SDS011;50278;47.796;11.968;2023-03-14T05:32:28;16.98;;;10.10;;
64031;SDS011;50278;47.796;11.968;2023-03-14T05:35:14;9.00;;;5.25;;
64031;SDS011;50278;47.796;11.968;2023-03-14T05:37:49;3.17;;;1.70;;
64031;SDS011;50278;47.796;11.968;2023-03-14T05:40:34;3.83;;;2.20;;
64031;SDS011;50278;47.796;11.968;2023-03-14T05:43:03;2.15;;;1.30;;
64031;SDS011;50278;47.796;11.968;2023-03-14T05:45:51;1.73;;;1.10;;
64031;SDS011;50278;47.796;11.968;2023-03-14T05:48:32;1.80;;;0.60;;
64031;SDS011;50278;47.796;11.968;2023-03-14T05:51:13;0.60;;;0.47;;
64031;SDS011;50278;47.796;11.968;2023-03-14T05:53:49;0.40;;;0.20;;
64031;SDS011;50278;47.796;11.968;2023-03-14T05:56:32;0.85;;;0.20;;
64031;SDS011;50278;47.796;11.968;2023-03-14T05:59:12;0.68;;;0.30;;
64031;SDS011;50278;47.796;11.968;2023-03-14T06:01:58;0.30;;;0.10;;
64031;SDS011;50278;47.796;11.968;2023-03-14T06:04:27;2.75;;;0.50;;
64031;SDS011;50278;47.796;11.968;2023-03-14T06:06:56;0.38;;;0.10;;
64031;SDS011;50278;47.796;11.968;2023-03-14T06:09:22;0.90;;;0.17;;
64031;SDS011;50278;47.796;11.968;2023-03-14T06:11:50;4.05;;;0.47;;
64031;SDS011;50278;47.796;11.968;2023-03-14T06:14:16;1.35;;;0.55;;
64031;SDS011;50278;47.796;11.968;2023-03-14T06:16:45;1.27;;;0.70;;
64031;SDS011;50278;47.796;11.968;2023-03-14T06:19:13;2.33;;;0.60;;
64031;SDS011;50278;47.796;11.968;2023-03-14T06:21:39;1.40;;;1.15;;
64031;SDS011;50278;47.796;11.968;2023-03-14T06:24:04;2.50;;;1.73;;
64031;SDS011;50278;47.796;11.968;2023-03-14T06:26:35;3.00;;;1.10;;
64031;SDS011;50278;47.796;11.968;2023-03-14T06:29:00;3.20;;;1.10;;
64031;SDS011;50278;47.796;11.968;2023-03-14T06:31:29;4.38;;;3.58;;
64031;SDS011;50278;47.796;11.968;2023-03-14T06:33:59;3.92;;;3.53;;
64031;SDS011;50278;47.796;11.968;2023-03-14T06:36:28;2.90;;;2.60;;
64031;SDS011;50278;47.796;11.968;2023-03-14T06:38:55;2.90;;;2.28;;
64031;SDS011;50278;47.796;11.968;2023-03-14T06:41:22;2.17;;;1.65;;
64031;SDS011;50278;47.796;11.968;2023-03-14T06:43:49;4.15;;;1.50;;
64031;SDS011;50278;47.796;11.968;2023-03-14T06:46:15;1.05;;;0.73;;
64031;SDS011;50278;47.796;11.968;2023-03-14T06:48:42;1.33;;;0.95;;
64031;SDS011;50278;47.796;11.968;2023-03-14T06:51:07;4.45;;;1.05;;
64031;SDS011;50278;47.796;11.968;2023-03-14T06:53:34;1.20;;;0.70;;
64031;SDS011;50278;47.796;11.968;2023-03-14T06:56:01;1.60;;;1.00;;
64031;SDS011;50278;47.796;11.968;2023-03-14T06:58:28;1.90;;;0.70;;
64031;SDS011;50278;47.796;11.968;2023-03-14T07:00:54;1.52;;;0.70;;
64031;SDS011;50278;47.796;11.968;2023-03-14T07:03:24;1.20;;;0.63;;
64031;SDS011;50278;47.796;11.968;2023-03-14T07:05:53;1.42;;;0.60;;
64031;SDS011;50278;47.796;11.968;2023-03-14T07:08:19;2.00;;;1.40;;
64031;SDS011;50278;47.796;11.968;2023-03-14T07:10:44;3.42;;;1.33;;
64031;SDS011;50278;47.796;11.968;2023-03-14T07:13:10;5.88;;;2.40;;
64031;SDS011;50278;47.796;11.968;2023-03-14T07:15:47;4.07;;;1.55;;
64031;SDS011;50278;47.796;11.968;2023-03-14T07:18:12;3.40;;;1.40;;
64031;SDS011;50278;47.796;11.968;2023-03-14T07:20:38;3.40;;;0.93;;
64031;SDS011;50278;47.796;11.968;2023-03-14T07:23:05;2.90;;;0.90;;
64031;SDS011;50278;47.796;11.968;2023-03-14T07:25:39;3.35;;;1.80;;
64031;SDS011;50278;47.796;11.968;2023-03-14T07:28:04;2.92;;;0.85;;
64031;SDS011;50278;47.796;11.968;2023-03-14T07:30:30;4.32;;;3.17;;
64031;SDS011;50278;47.796;11.968;2023-03-14T07:32:58;5.38;;;3.88;;
64031;SDS011;50278;47.796;11.968;2023-03-14T07:35:25;4.70;;;3.65;;
64031;SDS011;50278;47.796;11.968;2023-03-14T07:37:51;3.80;;;2.70;;
64031;SDS011;50278;47.796;11.968;2023-03-14T07:40:23;3.03;;;1.90;;
64031;SDS011;50278;47.796;11.968;2023-03-14T07:42:48;3.10;;;2.33;;
64031;SDS011;50278;47.796;11.968;2023-03-14T07:45:23;4.43;;;2.95;;
64031;SDS011;50278;47.796;11.968;2023-03-14T07:47:49;8.70;;;5.43;;
64031;SDS011;50278;47.796;11.968;2023-03-14T07:50:14;5.75;;;3.75;;
64031;SDS011;50278;47.796;11.968;2023-03-14T07:52:40;3.97;;;2.97;;
64031;SDS011;50278;47.796;11.968;2023-03-14T07:55:06;3.30;;;3.00;;
64031;SDS011;50278;47.796;11.968;2023-03-14T07:57:32;4.25;;;3.00;;
64031;SDS011;50278;47.796;11.968;2023-03-14T07:59:57;6.07;;;5.57;;
64031;SDS011;50278;47.796;11.968;2023-03-14T08:02:23;6.90;;;4.10;;
64031;SDS011;50278;47.796;11.968;2023-03-14T08:04:49;4.72;;;2.78;;
64031;SDS011;50278;47.796;11.968;2023-03-14T08:07:14;2.80;;;2.08;;
64031;SDS011;50278;47.796;11.968;2023-03-14T08:09:40;3.33;;;2.10;;
64031;SDS011;50278;47.796;11.968;2023-03-14T08:12:06;2.13;;;1.40;;
64031;SDS011;50278;47.796;11.968;2023-03-14T08:14:31;2.00;;;1.60;;
64031;SDS011;50278;47.796;11.968;2023-03-14T08:16:57;5.00;;;2.13;;
64031;SDS011;50278;47.796;11.968;2023-03-14T08:19:22;3.10;;;2.00;;
64031;SDS011;50278;47.796;11.968;2023-03-14T08:21:48;4.80;;;3.22;;
64031;SDS011;50278;47.796;11.968;2023-03-14T08:24:13;4.53;;;3.00;;
64031;SDS011;50278;47.796;11.968;2023-03-14T08:26:39;4.43;;;2.25;;
64031;SDS011;50278;47.796;11.968;2023-03-14T08:29:04;3.95;;;1.50;;
64031;SDS011;50278;47.796;11.968;2023-03-14T08:31:30;2.47;;;1.20;;
64031;SDS011;50278;47.796;11.968;2023-03-14T08:33:58;0.98;;;0.70;;
64031;SDS011;50278;47.796;11.968;2023-03-14T08:36:24;1.63;;;0.30;;
64031;SDS011;50278;47.796;11.968;2023-03-14T08:38:49;0.75;;;0.20;;
64031;SDS011;50278;47.796;11.968;2023-03-14T08:41:15;0.50;;;0.20;;
64031;SDS011;50278;47.796;11.968;2023-03-14T08:43:40;0.03;;;0.03;;
64031;SDS011;50278;47.796;11.968;2023-03-14T08:46:06;0.93;;;0.10;;
64031;SDS011;50278;47.796;11.968;2023-03-14T08:48:31;0.15;;;0.05;;
64031;SDS011;50278;47.796;11.968;2023-03-14T08:51:03;0.73;;;0.10;;
64031;SDS011;50278;47.796;11.968;2023-03-14T08:53:30;0.20;;;0.10;;
64031;SDS011;50278;47.796;11.968;2023-03-14T08:55:55;0.38;;;0.10;;
64031;SDS011;50278;47.796;11.968;2023-03-14T08:58:21;0.20;;;0.03;;
64031;SDS011;50278;47.796;11.968;2023-03-14T09:00:48;1.45;;;0.10;;
64031;SDS011;50278;47.796;11.968;2023-03-14T09:03:14;0.10;;;0.00;;
64031;SDS011;50278;47.796;11.968;2023-03-14T09:05:39;0.43;;;0.00;;
64031;SDS011;50278;47.796;11.968;2023-03-14T09:08:05;0.20;;;0.00;;
64031;SDS011;50278;47.796;11.968;2023-03-14T09:10:30;0.50;;;0.00;;
64031;SDS011;50278;47.796;11.968;2023-03-14T09:12:56;0.10;;;0.00;;
64031;SDS011;50278;47.796;11.968;2023-03-14T09:15:23;0.20;;;0.00;;
64031;SDS011;50278;47.796;11.968;2023-03-14T09:17:49;1.70;;;1.15;;
64031;SDS011;50278;47.796;11.968;2023-03-14T09:20:14;0.63;;;0.10;;
64031;SDS011;50278;47.796;11.968;2023-03-14T09:22:40;0.00;;;0.00;;
64031;SDS011;50278;47.796;11.968;2023-03-14T09:25:06;2.03;;;1.55;;
64031;SDS011;50278;47.796;11.968;2023-03-14T09:27:31;2.55;;;1.83;;
64031;SDS011;50278;47.796;11.968;2023-03-14T09:29:57;4.60;;;3.88;;
64031;SDS011;50278;47.796;11.968;2023-03-14T09:32:22;2.53;;;1.98;;
64031;SDS011;50278;47.796;11.968;2023-03-14T09:34:48;0.20;;;0.03;;
64031;SDS011;50278;47.796;11.968;2023-03-14T09:37:14;0.20;;;0.10;;
64031;SDS011;50278;47.796;11.968;2023-03-14T09:39:41;0.68;;;0.10;;
64031;SDS011;50278;47.796;11.968;2023-03-14T09:42:07;0.60;;;0.10;;
64031;SDS011;50278;47.796;11.968;2023-03-14T09:44:41;0.30;;;0.08;;
64031;SDS011;50278;47.796;11.968;2023-03-14T09:47:17;0.63;;;0.20;;
64031;SDS011;50278;47.796;11.968;2023-03-14T09:49:45;0.40;;;0.10;;
64031;SDS011;50278;47.796;11.968;2023-03-14T09:52:17;0.65;;;0.05;;
64031;SDS011;50278;47.796;11.968;2023-03-14T09:54:59;1.55;;;0.10;;
64031;SDS011;50278;47.796;11.968;2023-03-14T09:57:30;0.45;;;0.15;;
64031;SDS011;50278;47.796;11.968;2023-03-14T10:00:00;0.80;;;0.30;;
64031;SDS011;50278;47.796;11.968;2023-03-14T10:02:39;0.00;;;0.00;;
64031;SDS011;50278;47.796;11.968;2023-03-14T10:05:13;0.35;;;0.10;;
64031;SDS011;50278;47.796;11.968;2023-03-14T10:07:40;1.33;;;0.80;;
64031;SDS011;50278;47.796;11.968;2023-03-14T10:10:10;0.52;;;0.30;;
64031;SDS011;50278;47.796;11.968;2023-03-14T10:12:41;0.65;;;0.20;;
64031;SDS011;50278;47.796;11.968;2023-03-14T10:15:11;1.42;;;1.00;;
64031;SDS011;50278;47.796;11.968;2023-03-14T10:17:43;2.00;;;1.33;;
64031;SDS011;50278;47.796;11.968;2023-03-14T10:20:28;2.53;;;1.60;;
64031;SDS011;50278;47.796;11.968;2023-03-14T10:22:58;10.63;;;7.28;;
64031;SDS011;50278;47.796;11.968;2023-03-14T10:25:29;1.17;;;0.68;;
64031;SDS011;50278;47.796;11.968;2023-03-14T10:27:58;0.90;;;0.10;;
64031;SDS011;50278;47.796;11.968;2023-03-14T10:30:33;0.95;;;0.40;;
64031;SDS011;50278;47.796;11.968;2023-03-14T10:35:45;2.10;;;1.10;;
64031;SDS011;50278;47.796;11.968;2023-03-14T10:38:17;2.30;;;2.10;;
64031;SDS011;50278;47.796;11.968;2023-03-14T10:40:47;0.70;;;0.45;;
64031;SDS011;50278;47.796;11.968;2023-03-14T10:43:18;0.93;;;0.40;;
64031;SDS011;50278;47.796;11.968;2023-03-14T10:45:57;0.38;;;0.10;;
64031;SDS011;50278;47.796;11.968;2023-03-14T10:48:33;0.43;;;0.20;;
64031;SDS011;50278;47.796;11.968;2023-03-14T10:53:38;0.63;;;0.30;;
64031;SDS011;50278;47.796;11.968;2023-03-14T10:56:19;0.82;;;0.20;;
64031;SDS011;50278;47.796;11.968;2023-03-14T10:58:47;0.73;;;0.20;;
64031;SDS011;50278;47.796;11.968;2023-03-14T11:01:21;0.40;;;0.10;;
64031;SDS011;50278;47.796;11.968;2023-03-14T11:03:57;1.05;;;0.63;;
64031;SDS011;50278;47.796;11.968;2023-03-14T11:12:05;0.82;;;0.40;;
64031;SDS011;50278;47.796;11.968;2023-03-14T11:14:49;0.50;;;0.20;;
64031;SDS011;50278;47.796;11.968;2023-03-14T11:25:33;1.27;;;0.67;;
64031;SDS011;50278;47.796;11.968;2023-03-14T11:28:26;0.25;;;0.10;;
64031;SDS011;50278;47.796;11.968;2023-03-14T11:31:16;0.17;;;0.10;;
64031;SDS011;50278;47.796;11.968;2023-03-14T11:36:39;0.22;;;0.15;;
64031;SDS011;50278;47.796;11.968;2023-03-14T11:39:16;0.45;;;0.00;;
64031;SDS011;50278;47.796;11.968;2023-03-14T11:41:47;0.25;;;0.10;;
64031;SDS011;50278;47.796;11.968;2023-03-14T11:52:02;0.30;;;0.22;;
64031;SDS011;50278;47.796;11.968;2023-03-14T11:57:18;1.20;;;0.30;;
64031;SDS011;50278;47.796;11.968;2023-03-14T12:08:32;0.22;;;0.10;;
64031;SDS011;50278;47.796;11.968;2023-03-14T12:16:58;0.47;;;0.20;;
64031;SDS011;50278;47.796;11.968;2023-03-14T12:19:30;0.00;;;0.00;;
64031;SDS011;50278;47.796;11.968;2023-03-14T12:22:21;0.00;;;0.00;;
64031;SDS011;50278;47.796;11.968;2023-03-14T12:24:53;0.30;;;0.10;;
64031;SDS011;50278;47.796;11.968;2023-03-14T12:38:14;1.00;;;0.80;;
64031;SDS011;50278;47.796;11.968;2023-03-14T12:41:01;2.15;;;1.00;;
64031;SDS011;50278;47.796;11.968;2023-03-14T12:43:32;0.30;;;0.20;;
64031;SDS011;50278;47.796;11.968;2023-03-14T12:48:43;0.10;;;0.00;;
64031;SDS011;50278;47.796;11.968;2023-03-14T12:51:12;0.15;;;0.00;;
64031;SDS011;50278;47.796;11.968;2023-03-14T13:01:58;0.43;;;0.30;;
64031;SDS011;50278;47.796;11.968;2023-03-14T13:04:26;0.10;;;0.00;;
64031;SDS011;50278;47.796;11.968;2023-03-14T13:06:55;0.43;;;0.10;;
64031;SDS011;50278;47.796;11.968;2023-03-14T13:11:51;0.20;;;0.10;;
64031;SDS011;50278;47.796;11.968;2023-03-14T13:14:20;0.30;;;0.10;;
64031;SDS011;50278;47.796;11.968;2023-03-14T13:16:47;0.52;;;0.10;;
64031;SDS011;50278;47.796;11.968;2023-03-14T13:19:19;0.10;;;0.05;;
64031;SDS011;50278;47.796;11.968;2023-03-14T13:21:49;1.27;;;0.15;;
64031;SDS011;50278;47.796;11.968;2023-03-14T13:24:25;0.68;;;0.10;;
64031;SDS011;50278;47.796;11.968;2023-03-14T13:26:53;1.52;;;0.03;;
64031;SDS011;50278;47.796;11.968;2023-03-14T13:29:20;1.83;;;0.20;;
64031;SDS011;50278;47.796;11.968;2023-03-14T13:31:53;0.32;;;0.10;;
64031;SDS011;50278;47.796;11.968;2023-03-14T13:34:28;0.10;;;0.00;;
64031;SDS011;50278;47.796;11.968;2023-03-14T13:36:54;0.40;;;0.10;;
64031;SDS011;50278;47.796;11.968;2023-03-14T13:39:21;0.40;;;0.10;;
64031;SDS011;50278;47.796;11.968;2023-03-14T13:41:50;1.38;;;0.10;;
64031;SDS011;50278;47.796;11.968;2023-03-14T13:44:20;0.20;;;0.05;;
64031;SDS011;50278;47.796;11.968;2023-03-14T13:46:51;1.30;;;0.10;;
64031;SDS011;50278;47.796;11.968;2023-03-14T13:49:22;2.35;;;0.08;;
64031;SDS011;50278;47.796;11.968;2023-03-14T13:51:50;0.50;;;0.10;;
64031;SDS011;50278;47.796;11.968;2023-03-14T13:54:16;0.40;;;0.10;;
64031;SDS011;50278;47.796;11.968;2023-03-14T13:56:43;1.30;;;0.10;;
64031;SDS011;50278;47.796;11.968;2023-03-14T13:59:23;4.88;;;0.10;;
64031;SDS011;50278;47.796;11.968;2023-03-14T14:01:50;0.75;;;0.00;;
64031;SDS011;50278;47.796;11.968;2023-03-14T14:04:18;0.20;;;0.10;;
64031;SDS011;50278;47.796;11.968;2023-03-14T14:06:53;0.57;;;0.00;;
64031;SDS011;50278;47.796;11.968;2023-03-14T14:09:23;0.20;;;0.00;;
64031;SDS011;50278;47.796;11.968;2023-03-14T14:11:52;0.13;;;0.00;;
64031;SDS011;50278;47.796;11.968;2023-03-14T14:14:29;0.60;;;0.00;;
64031;SDS011;50278;47.796;11.968;2023-03-14T14:17:09;0.25;;;0.00;;
64031;SDS011;50278;47.796;11.968;2023-03-14T14:19:37;1.42;;;0.15;;
64031;SDS011;50278;47.796;11.968;2023-03-14T14:22:04;0.30;;;0.10;;
64031;SDS011;50278;47.796;11.968;2023-03-14T14:24:30;4.32;;;1.83;;
64031;SDS011;50278;47.796;11.968;2023-03-14T14:29:33;0.08;;;0.00;;
64031;SDS011;50278;47.796;11.968;2023-03-14T14:32:19;1.33;;;0.10;;
64031;SDS011;50278;47.796;11.968;2023-03-14T14:34:56;0.65;;;0.10;;
64031;SDS011;50278;47.796;11.968;2023-03-14T14:37:25;0.85;;;0.60;;
64031;SDS011;50278;47.796;11.968;2023-03-14T14:39:54;0.00;;;0.00;;
64031;SDS011;50278;47.796;11.968;2023-03-14T14:42:24;1.15;;;0.10;;
64031;SDS011;50278;47.796;11.968;2023-03-14T14:44:52;0.20;;;0.10;;
64031;SDS011;50278;47.796;11.968;2023-03-14T14:47:20;0.10;;;0.00;;
64031;SDS011;50278;47.796;11.968;2023-03-14T14:49:48;0.10;;;0.00;;
64031;SDS011;50278;47.796;11.968;2023-03-14T14:54:45;0.45;;;0.20;;
64031;SDS011;50278;47.796;11.968;2023-03-14T14:57:24;0.32;;;0.00;;
64031;SDS011;50278;47.796;11.968;2023-03-14T14:59:56;1.65;;;0.10;;
64031;SDS011;50278;47.796;11.968;2023-03-14T15:05:12;1.05;;;0.10;;
64031;SDS011;50278;47.796;11.968;2023-03-14T15:08:08;0.13;;;0.05;;
64031;SDS011;50278;47.796;11.968;2023-03-14T15:10:37;0.03;;;0.00;;
64031;SDS011;50278;47.796;11.968;2023-03-14T15:13:03;0.50;;;0.05;;
64031;SDS011;50278;47.796;11.968;2023-03-14T15:15:28;0.17;;;0.00;;
64031;SDS011;50278;47.796;11.968;2023-03-14T15:17:54;0.60;;;0.10;;
64031;SDS011;50278;47.796;11.968;2023-03-14T15:20:19;0.10;;;0.10;;
64031;SDS011;50278;47.796;11.968;2023-03-14T15:22:48;1.20;;;0.00;;
64031;SDS011;50278;47.796;11.968;2023-03-14T15:25:14;0.43;;;0.20;;
64031;SDS011;50278;47.796;11.968;2023-03-14T15:27:40;0.15;;;0.00;;
64031;SDS011;50278;47.796;11.968;2023-03-14T15:30:14;0.32;;;0.00;;
64031;SDS011;50278;47.796;11.968;2023-03-14T15:32:40;1.13;;;0.00;;
64031;SDS011;50278;47.796;11.968;2023-03-14T15:35:06;0.20;;;0.03;;
64031;SDS011;50278;47.796;11.968;2023-03-14T15:37:32;0.77;;;0.10;;
64031;SDS011;50278;47.796;11.968;2023-03-14T15:39:59;0.30;;;0.10;;
64031;SDS011;50278;47.796;11.968;2023-03-14T15:42:24;0.20;;;0.10;;
64031;SDS011;50278;47.796;11.968;2023-03-14T15:44:50;0.77;;;0.20;;
64031;SDS011;50278;47.796;11.968;2023-03-14T15:47:15;0.52;;;0.10;;
64031;SDS011;50278;47.796;11.968;2023-03-14T15:49:41;0.70;;;0.20;;
64031;SDS011;50278;47.796;11.968;2023-03-14T15:52:07;0.60;;;0.03;;
64031;SDS011;50278;47.796;11.968;2023-03-14T15:54:33;1.20;;;0.10;;
64031;SDS011;50278;47.796;11.968;2023-03-14T15:56:59;0.38;;;0.10;;
64031;SDS011;50278;47.796;11.968;2023-03-14T15:59:25;0.13;;;0.00;;
64031;SDS011;50278;47.796;11.968;2023-03-14T16:01:51;0.40;;;0.10;;
64031;SDS011;50278;47.796;11.968;2023-03-14T16:04:16;0.65;;;0.40;;
64031;SDS011;50278;47.796;11.968;2023-03-14T16:06:43;2.08;;;0.30;;
64031;SDS011;50278;47.796;11.968;2023-03-14T16:09:10;0.50;;;0.20;;
64031;SDS011;50278;47.796;11.968;2023-03-14T16:11:36;1.85;;;1.15;;
64031;SDS011;50278;47.796;11.968;2023-03-14T16:14:02;0.30;;;0.10;;
64031;SDS011;50278;47.796;11.968;2023-03-14T16:16:28;0.38;;;0.00;;